Gültigkeiten

Gültigkeiten und Schulungen     

Name: Sabionski Christian

Licence:

Type: European FCL-CPL (A)

Nr: 8031014287

Position: CPT: XXX FO: B200 Multicrew only

Date of Birth: 23.12.1973        

 

Types Issue date Intervall (month)
                                                                                                                                                                                                                                                                                          

Flugwetter Augsburg

[source: ADDS]
METAR
EDMA 040450Z AUTO 00000KT 9999 // NCD M01/M02 Q1021 =
TAF
Cookies erleichtern die Bereitstellung unserer Dienste. Mit der Nutzung unserer Dienste erklären Sie sich damit einverstanden, dass wir Cookies verwenden.
Weitere Informationen Ok